createdAt,value
2022-12-01T00:00:59.397Z,20.42
2022-12-01T00:04:02.170Z,19.50
2022-12-01T00:07:06.191Z,18.67
2022-12-01T00:10:26.632Z,19.55
2022-12-01T00:13:30.330Z,17.58
2022-12-01T00:16:34.180Z,18.20
2022-12-01T00:19:37.653Z,17.93
2022-12-01T00:22:47.769Z,18.50
2022-12-01T00:25:50.533Z,18.52
2022-12-01T00:28:58.995Z,18.80
2022-12-01T00:32:01.897Z,18.80
2022-12-01T00:35:05.744Z,17.37
2022-12-01T00:38:08.622Z,18.85
2022-12-01T00:41:11.650Z,18.35
2022-12-01T00:44:14.420Z,18.65
2022-12-01T00:47:17.373Z,19.85
2022-12-01T00:50:20.253Z,21.27
2022-12-01T00:53:24.752Z,19.60
2022-12-01T00:56:27.604Z,18.67
2022-12-01T00:59:30.485Z,22.20
2022-12-01T01:02:33.290Z,20.83
2022-12-01T01:05:41.034Z,17.97
2022-12-01T01:08:43.869Z,20.05
2022-12-01T01:11:46.653Z,19.10
2022-12-01T01:14:49.410Z,18.17
2022-12-01T01:17:52.217Z,19.17
2022-12-01T01:20:59.257Z,18.77
2022-12-01T01:24:02.239Z,18.45
2022-12-01T01:27:06.287Z,18.55
2022-12-01T01:30:09.581Z,18.98
2022-12-01T01:33:12.480Z,19.13
2022-12-01T01:36:16.081Z,18.30
2022-12-01T01:39:18.950Z,17.67
2022-12-01T01:42:22.280Z,17.23
2022-12-01T01:45:29.271Z,18.17
2022-12-01T01:48:33.805Z,17.42
2022-12-01T01:51:47.071Z,18.90
2022-12-01T01:54:54.236Z,17.88
2022-12-01T01:57:57.619Z,18.77
2022-12-01T02:01:00.806Z,17.42
2022-12-01T02:04:04.357Z,17.52
2022-12-01T02:07:08.561Z,18.13
2022-12-01T02:10:14.788Z,17.30
2022-12-01T02:13:33.469Z,17.55
2022-12-01T02:16:50.126Z,16.90
2022-12-01T02:20:17.741Z,17.10
2022-12-01T02:23:51.212Z,16.63
2022-12-01T02:27:07.216Z,17.17
2022-12-01T02:30:36.526Z,17.95
2022-12-01T02:33:43.918Z,16.83
2022-12-01T02:36:53.307Z,15.13
2022-12-01T02:40:06.443Z,15.77
2022-12-01T02:43:31.652Z,15.93
2022-12-01T02:46:40.032Z,15.52
2022-12-01T02:49:50.046Z,16.73
2022-12-01T02:52:54.466Z,14.23
2022-12-01T02:55:59.282Z,15.30
2022-12-01T02:59:02.185Z,16.00
2022-12-01T03:02:43.471Z,14.45
2022-12-01T03:06:03.046Z,14.73
2022-12-01T03:09:24.989Z,15.38
2022-12-01T03:12:42.762Z,15.23
2022-12-01T03:16:27.552Z,14.88
2022-12-01T03:19:40.087Z,13.88
2022-12-01T03:22:51.550Z,15.35
2022-12-01T03:25:56.829Z,14.90
2022-12-01T03:29:14.966Z,15.10
2022-12-01T03:32:28.376Z,15.00
2022-12-01T03:35:41.986Z,16.15
2022-12-01T03:38:48.993Z,16.15
2022-12-01T03:42:04.865Z,17.00
2022-12-01T03:45:12.117Z,14.90
2022-12-01T03:48:15.096Z,14.77
2022-12-01T03:51:39.575Z,15.20
2022-12-01T03:55:06.831Z,15.30
2022-12-01T03:58:14.802Z,15.18
2022-12-01T04:01:17.784Z,15.07
2022-12-01T04:04:20.803Z,15.27
2022-12-01T04:07:23.785Z,16.20
2022-12-01T04:10:26.929Z,16.55
2022-12-01T04:13:29.761Z,15.75
2022-12-01T04:16:32.791Z,17.03
2022-12-01T04:19:35.862Z,16.63
2022-12-01T04:22:39.187Z,16.63
2022-12-01T04:25:41.991Z,16.67
2022-12-01T04:28:44.830Z,16.73
2022-12-01T04:31:47.808Z,15.47
2022-12-01T04:34:50.612Z,16.75
2022-12-01T04:37:53.507Z,16.10
2022-12-01T04:40:56.424Z,14.65
2022-12-01T04:43:59.178Z,17.08
2022-12-01T04:47:03.350Z,14.40
2022-12-01T04:50:06.714Z,15.02
2022-12-01T04:53:09.459Z,14.80
2022-12-01T04:56:12.395Z,16.35
2022-12-01T04:59:15.233Z,16.08
2022-12-01T05:02:18.046Z,17.90
2022-12-01T05:05:20.865Z,16.67
2022-12-01T05:08:23.709Z,17.90
2022-12-01T05:11:28.707Z,17.40
2022-12-01T05:14:31.460Z,17.27
2022-12-01T05:17:37.055Z,15.53
2022-12-01T05:20:58.207Z,15.95
2022-12-01T05:24:00.879Z,16.83
2022-12-01T05:27:03.682Z,16.67
2022-12-01T05:30:07.363Z,16.27
2022-12-01T05:33:10.206Z,16.43
2022-12-01T05:36:13.013Z,17.52
2022-12-01T05:39:15.910Z,15.93
2022-12-01T05:42:18.593Z,17.40
2022-12-01T05:45:21.352Z,15.93
2022-12-01T05:48:24.767Z,15.93
2022-12-01T05:51:27.624Z,16.70
2022-12-01T05:54:30.694Z,17.38
2022-12-01T05:57:34.065Z,17.38
2022-12-01T06:00:45.043Z,17.45
2022-12-01T06:03:48.766Z,16.77
2022-12-01T06:06:51.782Z,16.02
2022-12-01T06:09:54.593Z,17.45
2022-12-01T06:12:57.386Z,17.27
2022-12-01T06:16:03.277Z,18.17
2022-12-01T06:19:06.131Z,17.70
2022-12-01T06:22:09.087Z,19.02
2022-12-01T06:25:11.971Z,19.80
2022-12-01T06:28:15.132Z,19.10
2022-12-01T06:31:18.046Z,18.00
2022-12-01T06:34:20.882Z,20.80
2022-12-01T06:37:23.743Z,21.45
2022-12-01T06:40:27.687Z,20.83
2022-12-01T06:43:30.804Z,20.35
2022-12-01T06:46:34.458Z,20.88
2022-12-01T06:49:38.227Z,21.07
2022-12-01T06:52:41.000Z,20.25
2022-12-01T06:55:43.930Z,21.10
2022-12-01T06:58:49.724Z,19.83
2022-12-01T07:01:53.207Z,19.33
2022-12-01T07:04:56.638Z,19.10
2022-12-01T07:08:04.546Z,20.08
2022-12-01T07:11:10.031Z,19.52
2022-12-01T07:14:27.177Z,18.88
2022-12-01T07:17:33.616Z,18.02
2022-12-01T07:20:36.618Z,18.73
2022-12-01T07:23:40.153Z,17.45
2022-12-01T07:26:43.762Z,18.77
2022-12-01T07:29:47.528Z,18.83
2022-12-01T07:32:50.937Z,18.02
2022-12-01T07:35:56.376Z,18.27
2022-12-01T07:39:00.570Z,17.40
2022-12-01T07:42:04.470Z,17.63
2022-12-01T07:45:08.849Z,18.10
2022-12-01T07:48:11.703Z,16.88
2022-12-01T07:51:16.870Z,16.73
2022-12-01T07:54:21.437Z,16.05
2022-12-01T07:57:24.581Z,17.13
2022-12-01T08:00:27.702Z,16.80
2022-12-01T08:03:32.384Z,16.42
2022-12-01T08:06:39.966Z,19.50
2022-12-01T08:09:45.791Z,18.95
2022-12-01T08:12:50.302Z,20.30
2022-12-01T08:15:56.812Z,16.35
2022-12-01T08:19:03.413Z,16.42
2022-12-01T08:22:09.404Z,16.33
2022-12-01T08:25:12.270Z,15.80
2022-12-01T08:28:15.605Z,15.82
2022-12-01T08:31:20.298Z,15.93
2022-12-01T08:34:24.310Z,16.48
2022-12-01T08:37:27.943Z,17.23
2022-12-01T08:40:30.986Z,15.05
2022-12-01T08:43:56.724Z,17.95
2022-12-01T08:46:58.066Z,14.82
2022-12-01T08:50:01.294Z,15.13
2022-12-01T08:53:04.246Z,15.07
2022-12-01T08:56:11.295Z,15.82
2022-12-01T08:59:14.381Z,16.55
2022-12-01T09:02:26.827Z,15.88
2022-12-01T09:05:31.143Z,15.32
2022-12-01T09:08:36.138Z,15.27
2022-12-01T09:11:48.127Z,17.42
2022-12-01T09:14:51.334Z,16.25
2022-12-01T09:17:57.265Z,16.00
2022-12-01T09:21:01.108Z,15.43
2022-12-01T09:24:05.847Z,13.50
2022-12-01T09:27:10.408Z,14.73
2022-12-01T09:30:14.532Z,13.40
2022-12-01T09:33:18.530Z,13.73
2022-12-01T09:36:22.311Z,14.48
2022-12-01T09:39:25.508Z,14.23
2022-12-01T09:42:33.835Z,15.60
2022-12-01T09:45:44.389Z,14.35
2022-12-01T09:48:49.807Z,13.07
2022-12-01T09:51:54.507Z,13.55
2022-12-01T09:55:00.801Z,13.13
2022-12-01T09:58:06.419Z,12.52
2022-12-01T10:01:17.694Z,12.35
2022-12-01T10:04:42.907Z,13.30
2022-12-01T10:07:54.317Z,12.70
2022-12-01T10:11:05.868Z,12.70
2022-12-01T10:14:20.217Z,16.27
2022-12-01T10:17:58.175Z,20.35
2022-12-01T10:21:25.576Z,16.40
2022-12-01T10:24:52.278Z,13.88
2022-12-01T10:28:31.226Z,17.53
2022-12-01T10:31:53.622Z,24.77
2022-12-01T10:35:03.930Z,23.73
2022-12-01T10:38:19.832Z,26.52
2022-12-01T10:41:26.255Z,26.00
2022-12-01T10:44:34.156Z,12.80
2022-12-01T10:47:38.334Z,11.32
2022-12-01T10:50:47.626Z,13.82
2022-12-01T10:53:59.465Z,14.32
2022-12-01T10:57:03.835Z,12.65
2022-12-01T11:00:09.195Z,13.13
2022-12-01T11:03:29.771Z,12.63
2022-12-01T11:06:35.413Z,12.52
2022-12-01T11:09:38.697Z,11.98
2022-12-01T11:12:43.827Z,11.93
2022-12-01T11:16:07.505Z,13.03
2022-12-01T11:19:34.171Z,14.02
2022-12-01T11:22:37.749Z,11.18
2022-12-01T11:25:41.068Z,11.30
2022-12-01T11:28:52.106Z,10.23
2022-12-01T11:31:55.542Z,11.20
2022-12-01T11:35:03.022Z,11.82
2022-12-01T11:41:41.301Z,12.45
2022-12-01T11:45:03.502Z,12.48
2022-12-01T11:48:12.494Z,13.70
2022-12-01T11:51:18.405Z,13.20
2022-12-01T11:54:26.624Z,13.25
2022-12-01T11:57:35.026Z,12.45
2022-12-01T12:00:50.311Z,13.35
2022-12-01T12:04:12.717Z,14.23
2022-12-01T12:07:28.287Z,13.98
2022-12-01T12:11:00.865Z,14.23
2022-12-01T12:14:28.522Z,12.70
2022-12-01T12:17:49.246Z,12.80
2022-12-01T12:21:10.622Z,13.87
2022-12-01T12:24:25.807Z,17.13
2022-12-01T12:27:34.559Z,13.95
2022-12-01T12:30:49.409Z,12.05
2022-12-01T12:34:24.040Z,13.10
2022-12-01T12:37:41.530Z,14.33
2022-12-01T12:40:53.639Z,13.82
2022-12-01T12:44:08.881Z,17.05
2022-12-01T12:47:20.176Z,14.43
2022-12-01T12:51:03.689Z,14.50
2022-12-01T12:54:12.518Z,14.90
2022-12-01T12:57:43.688Z,12.35
2022-12-01T13:00:52.558Z,14.43
2022-12-01T13:04:03.872Z,14.07
2022-12-01T13:07:29.159Z,13.90
2022-12-01T13:10:38.243Z,13.20
2022-12-01T13:14:01.262Z,13.63
2022-12-01T13:17:21.759Z,13.57
2022-12-01T13:20:29.991Z,13.38
2022-12-01T13:23:34.525Z,12.48
2022-12-01T13:26:40.222Z,12.73
2022-12-01T13:29:52.558Z,12.82
2022-12-01T13:33:05.380Z,12.05
2022-12-01T13:39:37.344Z,12.52
2022-12-01T13:42:40.804Z,12.23
2022-12-01T13:45:43.907Z,11.77
2022-12-01T13:48:46.872Z,13.45
2022-12-01T13:52:26.921Z,13.23
2022-12-01T13:55:30.032Z,15.40
2022-12-01T13:58:35.733Z,14.37
2022-12-01T14:01:43.838Z,15.10
2022-12-01T14:04:47.269Z,17.20
2022-12-01T14:07:54.675Z,14.63
2022-12-01T14:11:00.223Z,14.13
2022-12-01T14:14:09.119Z,15.40
2022-12-01T14:17:29.168Z,15.30
2022-12-01T14:20:37.979Z,14.70
2022-12-01T14:24:01.178Z,14.02
2022-12-01T14:27:06.118Z,12.25
2022-12-01T14:30:40.406Z,12.50
2022-12-01T14:33:45.205Z,13.27
2022-12-01T14:36:57.124Z,13.70
2022-12-01T14:40:08.582Z,13.68
2022-12-01T14:43:31.316Z,13.80
2022-12-01T14:46:49.266Z,13.57
2022-12-01T14:50:13.443Z,13.50
2022-12-01T14:53:25.179Z,13.68
2022-12-01T14:56:28.727Z,15.07
2022-12-01T14:59:31.722Z,17.67
2022-12-01T15:02:39.730Z,15.37
2022-12-01T15:05:44.357Z,15.98
2022-12-01T15:09:31.505Z,15.32
2022-12-01T15:12:29.727Z,19.48
2022-12-01T15:15:32.682Z,20.15
2022-12-01T15:18:39.696Z,19.87
2022-12-01T15:21:42.610Z,18.48
2022-12-01T15:24:46.076Z,18.75
2022-12-01T15:28:12.103Z,18.60
2022-12-01T15:31:16.237Z,20.15
2022-12-01T15:34:42.295Z,19.53
2022-12-01T15:37:46.271Z,18.77
2022-12-01T15:44:22.178Z,20.20
2022-12-01T15:47:38.437Z,17.42
2022-12-01T15:50:46.456Z,16.47
2022-12-01T15:53:54.521Z,17.05
2022-12-01T15:56:59.340Z,15.70
2022-12-01T16:00:02.498Z,15.18
2022-12-01T16:03:15.942Z,18.10
2022-12-01T16:06:20.650Z,15.73
2022-12-01T16:09:42.072Z,16.92
2022-12-01T16:12:44.865Z,18.65
2022-12-01T16:15:48.126Z,18.10
2022-12-01T16:18:57.212Z,16.52
2022-12-01T16:22:14.270Z,17.70
2022-12-01T16:25:32.849Z,17.80
2022-12-01T16:28:36.189Z,17.77
2022-12-01T16:31:58.754Z,17.90
2022-12-01T16:35:04.430Z,18.00
2022-12-01T16:38:19.643Z,18.40
2022-12-01T16:41:37.896Z,18.48
2022-12-01T16:44:42.821Z,19.80
2022-12-01T16:47:48.338Z,19.83
2022-12-01T16:50:52.156Z,21.67
2022-12-01T16:53:56.536Z,22.77
2022-12-01T16:56:59.430Z,24.63
2022-12-01T17:00:02.478Z,24.17
2022-12-01T17:03:12.006Z,21.95
2022-12-01T17:06:18.551Z,20.85
2022-12-01T17:09:22.851Z,18.80
2022-12-01T17:12:26.868Z,17.77
2022-12-01T17:15:29.764Z,19.13
2022-12-01T17:18:35.744Z,20.45
2022-12-01T17:21:38.486Z,19.55
2022-12-01T17:24:41.538Z,20.23
2022-12-01T17:27:44.361Z,22.52
2022-12-01T17:30:47.403Z,21.17
2022-12-01T17:33:51.727Z,21.85
2022-12-01T17:36:54.490Z,22.58
2022-12-01T17:39:57.507Z,20.60
2022-12-01T17:43:00.572Z,20.05
2022-12-01T17:46:05.720Z,23.23
2022-12-01T17:49:10.790Z,23.25
2022-12-01T17:52:13.651Z,23.70
2022-12-01T17:55:17.756Z,21.97
2022-12-01T17:58:21.757Z,23.02
2022-12-01T18:01:29.978Z,24.48
2022-12-01T18:04:34.836Z,25.92
2022-12-01T18:07:37.992Z,25.77
2022-12-01T18:10:40.780Z,24.73
2022-12-01T18:13:47.134Z,26.10
2022-12-01T18:16:50.612Z,26.05
2022-12-01T18:19:53.655Z,26.30
2022-12-01T18:22:56.655Z,24.73
2022-12-01T18:26:09.685Z,24.43
2022-12-01T18:29:26.008Z,24.65
2022-12-01T18:32:29.313Z,24.40
2022-12-01T18:35:32.390Z,25.13
2022-12-01T18:38:35.675Z,27.50
2022-12-01T18:41:39.246Z,24.60
2022-12-01T18:44:42.511Z,27.98
2022-12-01T18:47:45.825Z,27.52
2022-12-01T18:50:48.838Z,27.10
2022-12-01T18:53:55.074Z,27.15
2022-12-01T18:56:59.126Z,27.10
2022-12-01T19:00:04.627Z,24.15
2022-12-01T19:03:07.890Z,23.75
2022-12-01T19:06:13.111Z,24.05
2022-12-01T19:09:17.627Z,24.08
2022-12-01T19:12:20.931Z,24.13
2022-12-01T19:15:23.796Z,23.38
2022-12-01T19:18:27.068Z,26.30
2022-12-01T19:21:30.249Z,25.63
2022-12-01T19:24:35.592Z,25.85
2022-12-01T19:27:41.081Z,26.00
2022-12-01T19:30:48.075Z,26.88
2022-12-01T19:33:53.488Z,27.70
2022-12-01T19:36:56.970Z,25.70
2022-12-01T19:40:00.270Z,27.90
2022-12-01T19:43:03.351Z,26.80
2022-12-01T19:46:12.961Z,24.50
2022-12-01T19:49:15.922Z,24.70
2022-12-01T19:52:19.173Z,27.15
2022-12-01T19:55:22.010Z,24.52
2022-12-01T19:58:25.671Z,23.37
2022-12-01T20:01:29.398Z,22.65
2022-12-01T20:04:32.376Z,21.67
2022-12-01T20:07:35.550Z,23.02
2022-12-01T20:10:38.345Z,21.65
2022-12-01T20:13:43.095Z,21.70
2022-12-01T20:16:46.282Z,22.88
2022-12-01T20:19:49.346Z,22.58
2022-12-01T20:22:52.399Z,22.85
2022-12-01T20:25:59.183Z,23.08
2022-12-01T20:29:05.515Z,22.93
2022-12-01T20:32:08.714Z,23.10
2022-12-01T20:35:12.266Z,21.10
2022-12-01T20:38:15.565Z,22.25
2022-12-01T20:41:18.498Z,25.23
2022-12-01T20:44:22.311Z,28.30
2022-12-01T20:47:25.479Z,28.13
2022-12-01T20:50:28.589Z,24.88
2022-12-01T20:53:31.941Z,24.80
2022-12-01T20:56:35.052Z,23.02
2022-12-01T20:59:38.045Z,27.93
2022-12-01T21:02:41.206Z,27.35
2022-12-01T21:05:44.731Z,24.50
2022-12-01T21:08:49.848Z,25.25
2022-12-01T21:12:12.171Z,23.25
2022-12-01T21:15:25.246Z,23.03
2022-12-01T21:18:34.860Z,24.73
2022-12-01T21:21:41.811Z,22.50
2022-12-01T21:24:50.006Z,22.10
2022-12-01T21:27:58.259Z,24.27
2022-12-01T21:31:12.661Z,22.03
2022-12-01T21:34:22.644Z,23.52
2022-12-01T21:37:25.639Z,22.10
2022-12-01T21:40:28.842Z,22.35
2022-12-01T21:43:36.694Z,23.08
2022-12-01T21:46:42.493Z,23.77
2022-12-01T21:49:46.103Z,23.65
2022-12-01T21:52:49.559Z,23.05
2022-12-01T21:55:52.485Z,22.35
2022-12-01T21:58:59.426Z,24.90
2022-12-01T22:02:07.970Z,23.37
2022-12-01T22:05:41.644Z,22.80
2022-12-01T22:08:48.611Z,24.02
2022-12-01T22:11:56.940Z,23.05
2022-12-01T22:15:02.083Z,22.58
2022-12-01T22:18:25.618Z,23.63
2022-12-01T22:21:32.604Z,22.48
2022-12-01T22:24:46.867Z,22.48
2022-12-01T22:27:49.733Z,19.65
2022-12-01T22:30:52.623Z,22.50
2022-12-01T22:34:03.366Z,21.47
2022-12-01T22:37:21.759Z,21.45
2022-12-01T22:40:48.312Z,24.15
2022-12-01T22:43:52.343Z,24.45
2022-12-01T22:47:01.398Z,24.20
2022-12-01T22:50:29.050Z,24.53
2022-12-01T22:53:31.812Z,22.58
2022-12-01T22:56:46.589Z,23.25
2022-12-01T22:59:50.473Z,22.60
2022-12-01T23:02:55.800Z,21.30
2022-12-01T23:05:58.727Z,24.83
2022-12-01T23:09:02.142Z,21.98
2022-12-01T23:12:35.199Z,21.52
2022-12-01T23:15:38.106Z,22.48
2022-12-01T23:18:41.185Z,23.33
2022-12-01T23:21:44.089Z,24.47
2022-12-01T23:24:47.162Z,23.00
2022-12-01T23:27:53.150Z,23.52
2022-12-01T23:30:59.216Z,23.05
2022-12-01T23:34:01.971Z,22.75
2022-12-01T23:37:16.821Z,23.83
2022-12-01T23:40:23.483Z,24.33
2022-12-01T23:43:30.184Z,23.17
2022-12-01T23:46:33.060Z,25.77
2022-12-01T23:49:36.207Z,24.73
2022-12-01T23:52:39.233Z,25.50
2022-12-01T23:55:42.010Z,24.45
2022-12-01T23:58:45.541Z,25.38
